Time;durP1;ratioP1;P1;durP2;ratioP2;P2;SDS_P1;SDS_P2;PMS_P1;PMS_P2;Temp;Humidity;BMP_temperature;BMP_pressure;BME280_temperature;BME280_humidity;BME280_pressure;Samples;Min_cycle;Max_cycle;Signal;HPM_P1;HPM_P2
2024/04/15 00:01:30;;;;;;;9.82;6.28;;;;;;;15.75;75.50;100350.97;5487142;26;20013;-78
2024/04/15 00:03:56;;;;;;;7.68;5.65;;;;;;;15.23;78.08;100331.31;5485714;26;19998;-79
2024/04/15 00:06:21;;;;;;;9.80;5.53;;;;;;;15.40;77.39;100339.38;5485458;26;19994;-79
2024/04/15 00:08:46;;;;;;;31.30;7.30;;;;;;;15.64;74.66;100317.72;5487017;26;20004;-79
2024/04/15 00:11:12;;;;;;;13.82;6.30;;;;;;;15.81;74.76;100328.47;5487399;26;20005;-79
2024/04/15 00:13:38;;;;;;;9.63;6.15;;;;;;;14.99;80.00;100345.94;5486999;26;20361;-79
2024/04/15 00:16:08;;;;;;;7.85;5.10;;;;;;;15.23;78.35;100338.59;5482474;26;19998;-79
2024/04/15 00:18:34;;;;;;;9.05;5.47;;;;;;;15.46;76.66;100351.03;5487371;26;20001;-79
2024/04/15 00:21:00;;;;;;;10.25;5.93;;;;;;;14.94;79.39;100310.97;5487185;26;20011;-80
2024/04/15 00:23:26;;;;;;;12.18;6.28;;;;;;;15.58;75.77;100338.34;5486832;26;20010;-79
2024/04/15 00:25:58;;;;;;;9.10;5.70;;;;;;;15.81;75.65;100341.94;5485857;26;20070;-79
2024/04/15 00:28:25;;;;;;;9.93;5.60;;;;;;;15.81;74.42;100331.19;5475358;26;20002;-79
2024/04/15 00:30:50;;;;;;;10.27;5.82;;;;;;;15.99;72.42;100344.34;5485744;26;19998;-80
2024/04/15 00:33:17;;;;;;;9.40;5.68;;;;;;;15.72;74.12;100352.28;5486482;26;20465;-79
2024/04/15 00:35:46;;;;;;;8.13;5.85;;;;;;;14.66;82.32;100348.28;5482567;26;20046;-78
2024/04/15 00:38:16;;;;;;;8.30;5.68;;;;;;;14.24;82.56;100344.97;5485907;26;20206;-80
2024/04/15 00:40:41;;;;;;;9.70;5.35;;;;;;;13.51;89.44;100336.41;5486745;26;20360;-79
2024/04/15 00:43:07;;;;;;;9.18;5.78;;;;;;;14.32;83.54;100320.47;5486758;26;20013;-79
2024/04/15 00:45:33;;;;;;;8.90;5.85;;;;;;;13.92;88.03;100341.91;5484602;26;20488;-78
2024/04/15 00:48:01;;;;;;;7.70;5.72;;;;;;;13.84;89.70;100345.75;5482741;26;20006;-79
2024/04/15 00:50:28;;;;;;;9.80;5.18;;;;;;;14.17;87.59;100338.94;5484815;26;20354;-80
2024/04/15 00:52:55;;;;;;;9.13;6.20;;;;;;;14.66;82.20;100326.81;5484735;26;19994;-79
2024/04/15 00:55:22;;;;;;;8.70;6.47;;;;;;;14.92;80.01;100331.88;5486522;26;19998;-79
2024/04/15 00:57:49;;;;;;;10.48;6.30;;;;;;;15.05;78.44;100326.19;5485402;26;20391;-79
2024/04/15 01:00:15;;;;;;;9.48;6.43;;;;;;;14.50;83.13;100348.22;5486221;26;20010;-80
2024/04/15 01:02:42;;;;;;;10.77;5.53;;;;;;;13.72;87.74;100316.25;5486040;26;20006;-79
2024/04/15 01:05:09;;;;;;;9.73;6.13;;;;;;;13.94;87.07;100323.72;5486007;26;20439;-79
2024/04/15 01:07:36;;;;;;;8.50;5.35;;;;;;;14.13;84.79;100297.56;5481160;26;20010;-79
2024/04/15 01:10:02;;;;;;;8.90;5.85;;;;;;;14.28;84.05;100316.63;5485151;26;20044;-79
2024/04/15 01:12:29;;;;;;;9.80;5.25;;;;;;;14.04;87.35;100311.34;5485599;26;20066;-79
2024/04/15 01:14:54;;;;;;;10.63;7.00;;;;;;;14.78;81.57;100329.47;5483654;26;19990;-79
2024/04/15 01:17:20;;;;;;;10.38;5.90;;;;;;;13.65;87.72;100316.38;5484539;26;20320;-79
2024/04/15 01:19:45;;;;;;;7.90;6.03;;;;;;;13.84;87.97;100319.75;5485173;26;20062;-78
2024/04/15 01:22:12;;;;;;;9.18;6.57;;;;;;;14.21;82.87;100313.28;5485510;26;20442;-78
2024/04/15 01:24:37;;;;;;;10.10;6.72;;;;;;;14.24;83.09;100315.47;5485737;26;20323;-79
2024/04/15 01:27:03;;;;;;;11.68;6.25;;;;;;;14.30;82.67;100327.94;5497174;26;20009;-79
2024/04/15 01:29:28;;;;;;;11.38;6.60;;;;;;;13.80;85.85;100312.41;5468683;26;20005;-79
2024/04/15 01:31:53;;;;;;;11.05;7.20;;;;;;;14.07;83.98;100313.53;5485705;26;20430;-78
2024/04/15 01:34:19;;;;;;;9.98;6.30;;;;;;;13.90;84.03;100307.28;5485569;26;19997;-79
2024/04/15 01:36:44;;;;;;;10.68;6.70;;;;;;;13.98;83.28;100306.91;5481806;26;20010;-79
2024/04/15 01:39:10;;;;;;;11.43;6.75;;;;;;;14.13;83.10;100321.69;5481195;26;19994;-78
2024/04/15 01:41:35;;;;;;;10.95;6.30;;;;;;;13.14;91.07;100308.97;5485349;26;19994;-79
2024/04/15 01:44:00;;;;;;;10.07;6.55;;;;;;;12.98;93.46;100307.75;5500089;26;20023;-79
2024/04/15 01:46:26;;;;;;;7.88;5.60;;;;;;;12.95;91.76;100316.22;5454805;26;20069;-79
2024/04/15 01:48:51;;;;;;;7.30;5.40;;;;;;;12.56;93.11;100313.06;5460946;26;20384;-78
2024/04/15 01:51:17;;;;;;;8.95;5.25;;;;;;;12.57;92.77;100309.34;5488612;26;19997;-79
2024/04/15 01:53:42;;;;;;;8.55;6.05;;;;;;;13.40;86.88;100313.09;5488541;26;20009;-79
2024/04/15 01:56:07;;;;;;;11.50;6.15;;;;;;;12.97;90.07;100324.84;5486715;26;20013;-79
2024/04/15 01:58:33;;;;;;;10.20;6.82;;;;;;;12.38;92.40;100279.97;5487805;26;20328;-79
2024/04/15 02:01:05;;;;;;;9.00;6.47;;;;;;;12.53;94.28;100313.50;5488522;26;19994;-79
2024/04/15 02:03:30;;;;;;;11.27;6.90;;;;;;;13.36;87.03;100322.63;5488194;26;20694;-79
2024/04/15 02:05:56;;;;;;;9.70;6.65;;;;;;;12.67;91.95;100301.59;5486604;26;20013;-78
2024/04/15 02:08:21;;;;;;;12.93;7.07;;;;;;;13.14;90.37;100290.22;5455563;26;20331;-79
2024/04/15 02:10:47;;;;;;;12.57;6.68;;;;;;;13.42;87.68;100276.16;5488169;26;20069;-79
2024/04/15 02:13:12;;;;;;;12.98;7.70;;;;;;;13.57;87.18;100311.38;5487654;26;20009;-78
2024/04/15 02:15:38;;;;;;;9.25;6.78;;;;;;;13.53;86.12;100290.63;5488760;26;19998;-78
2024/04/15 02:18:03;;;;;;;10.35;6.55;;;;;;;13.29;90.18;100308.50;5486871;26;20034;-79
2024/04/15 02:20:29;;;;;;;10.02;6.80;;;;;;;13.64;86.53;100303.19;5485876;26;20319;-78
2024/04/15 02:22:55;;;;;;;10.57;6.95;;;;;;;13.62;86.88;100294.59;5487777;26;20009;-78
2024/04/15 02:25:21;;;;;;;10.05;6.70;;;;;;;13.60;87.50;100281.41;5487788;26;19998;-78
2024/04/15 02:27:47;;;;;;;13.40;7.18;;;;;;;13.51;89.57;100277.47;5471191;26;19999;-78
2024/04/15 02:30:12;;;;;;;16.58;7.50;;;;;;;13.58;87.10;100280.00;5487449;26;20010;-79
2024/04/15 02:32:38;;;;;;;11.73;7.28;;;;;;;13.67;86.25;100292.03;5487576;26;20016;-79
2024/04/15 02:35:04;;;;;;;9.65;6.80;;;;;;;13.62;87.47;100273.94;5504789;26;20002;-79
2024/04/15 02:37:30;;;;;;;13.60;7.82;;;;;;;13.65;86.68;100281.53;5466971;26;20445;-78
2024/04/15 02:39:55;;;;;;;11.90;6.63;;;;;;;13.44;87.38;100274.06;5488000;26;20013;-80
2024/04/15 02:42:21;;;;;;;10.68;7.30;;;;;;;12.90;93.27;100286.66;5487863;26;19994;-80
2024/04/15 02:44:46;;;;;;;12.43;7.32;;;;;;;12.32;98.80;100286.22;5487533;26;20030;-80
2024/04/15 02:47:12;;;;;;;9.90;7.32;;;;;;;12.78;94.14;100274.03;5487093;26;20001;-79
2024/04/15 02:49:37;;;;;;;12.48;7.25;;;;;;;13.16;91.09;100280.09;5487801;26;20002;-80
2024/04/15 02:52:03;;;;;;;13.05;7.75;;;;;;;13.12;92.27;100295.78;5487861;26;20395;-79
2024/04/15 02:54:28;;;;;;;9.48;6.30;;;;;;;12.53;93.13;100270.72;5486812;26;20492;-79
2024/04/15 02:56:53;;;;;;;11.63;7.70;;;;;;;13.11;88.84;100267.38;5477710;26;20018;-79
2024/04/15 02:59:19;;;;;;;11.25;7.38;;;;;;;13.42;86.45;100292.22;5451133;26;20638;-79
2024/04/15 03:01:44;;;;;;;10.27;6.80;;;;;;;12.18;93.77;100282.06;5459636;26;20013;-78
2024/04/15 03:04:10;;;;;;;11.52;6.90;;;;;;;12.21;93.73;100292.28;5487014;26;20060;-78
2024/04/15 03:06:35;;;;;;;12.20;7.10;;;;;;;12.67;91.41;100293.56;5486824;26;19998;-80
2024/04/15 03:09:00;;;;;;;11.93;7.30;;;;;;;12.44;94.65;100294.25;5486890;26;19998;-78
2024/04/15 03:11:26;;;;;;;13.45;7.22;;;;;;;12.54;96.06;100277.69;5487385;26;20374;-79
2024/04/15 03:13:52;;;;;;;9.55;6.75;;;;;;;12.89;93.88;100285.00;5480991;26;20383;-79
2024/04/15 03:16:17;;;;;;;11.18;7.25;;;;;;;12.92;93.31;100295.28;5485715;26;19994;-79
2024/04/15 03:18:45;;;;;;;9.30;7.05;;;;;;;12.83;95.71;100294.75;5487008;26;20009;-79
2024/04/15 03:21:11;;;;;;;13.48;6.80;;;;;;;13.05;92.69;100295.06;5451061;26;20100;-79
2024/04/15 03:23:36;;;;;;;11.43;7.07;;;;;;;13.20;90.96;100308.84;5466195;26;20060;-78
2024/04/15 03:26:02;;;;;;;10.32;6.78;;;;;;;12.66;95.79;100292.72;5485198;26;20000;-79
2024/04/15 03:28:27;;;;;;;10.13;7.38;;;;;;;13.05;92.54;100303.91;5485942;26;20362;-78
2024/04/15 03:30:53;;;;;;;12.02;7.43;;;;;;;13.26;91.18;100318.63;5487246;26;20447;-78
2024/04/15 03:33:18;;;;;;;9.13;6.47;;;;;;;12.94;92.14;100314.59;5486636;26;20434;-80
2024/04/15 03:35:44;;;;;;;11.55;7.18;;;;;;;12.99;91.88;100323.56;5486940;26;19998;-79
2024/04/15 03:38:09;;;;;;;27.40;7.68;;;;;;;12.83;91.60;100313.50;5486659;26;19998;-79
2024/04/15 03:40:35;;;;;;;13.82;6.38;;;;;;;12.46;96.68;100316.25;5487254;26;20010;-79
2024/04/15 03:43:02;;;;;;;7.82;5.38;;;;;;;11.54;93.09;100316.97;5483510;26;19994;-79
2024/04/15 03:45:28;;;;;;;12.33;5.57;;;;;;;10.55;97.56;100323.81;5486917;26;20021;-79
2024/04/15 03:47:53;;;;;;;8.07;5.25;;;;;;;10.51;100.00;100328.75;5471685;26;20004;-79
2024/04/15 03:50:20;;;;;;;8.82;5.00;;;;;;;9.97;100.00;100312.09;5486940;26;19994;-79
2024/04/15 03:52:46;;;;;;;11.38;6.22;;;;;;;9.36;100.00;100304.41;5486476;26;20415;-79
2024/04/15 03:55:11;;;;;;;8.60;5.25;;;;;;;9.62;100.00;100320.34;5486934;26;20034;-80
2024/04/15 03:57:36;;;;;;;14.32;6.32;;;;;;;9.60;100.00;100290.44;5486375;26;19997;-79
2024/04/15 04:00:02;;;;;;;8.18;5.57;;;;;;;9.79;100.00;100310.06;5486927;26;20017;-80
2024/04/15 04:02:28;;;;;;;11.80;6.28;;;;;;;9.88;100.00;100277.91;5486572;26;20350;-79
2024/04/15 04:04:53;;;;;;;12.77;5.93;;;;;;;10.01;100.00;100310.66;5486197;26;19998;-79
2024/04/15 04:07:20;;;;;;;16.63;6.13;;;;;;;9.87;100.00;100306.38;5477972;26;20003;-79
2024/04/15 04:09:47;;;;;;;23.88;7.15;;;;;;;10.22;100.00;100301.56;5469254;26;20030;-79
2024/04/15 04:12:12;;;;;;;13.63;6.03;;;;;;;10.18;100.00;100289.69;5484853;26;20002;-78
2024/04/15 04:14:38;;;;;;;15.40;6.43;;;;;;;10.05;100.00;100298.53;5485820;26;19996;-80
2024/04/15 04:17:03;;;;;;;16.17;6.00;;;;;;;10.49;100.00;100320.16;5483528;26;20420;-79
2024/04/15 04:19:30;;;;;;;13.32;8.73;;;;;;;10.24;100.00;100269.38;5461119;26;19998;-79
2024/04/15 04:21:55;;;;;;;17.50;7.10;;;;;;;10.67;100.00;100319.44;5486498;26;19995;-79
2024/04/15 04:24:21;;;;;;;15.38;7.60;;;;;;;10.60;100.00;100289.31;5485997;26;20002;-79
2024/04/15 04:26:46;;;;;;;16.77;7.60;;;;;;;10.96;100.00;100299.38;5486396;26;20006;-79
2024/04/15 04:29:12;;;;;;;11.25;6.93;;;;;;;11.65;100.00;100318.94;5484905;26;20451;-79
2024/04/15 04:31:38;;;;;;;15.00;6.85;;;;;;;11.70;100.00;100322.81;5486908;26;20409;-79
2024/04/15 04:34:03;;;;;;;12.10;6.97;;;;;;;11.76;100.00;100313.94;5486600;26;19994;-79
2024/04/15 04:36:29;;;;;;;10.52;7.18;;;;;;;11.98;100.00;100323.19;5486379;26;20067;-79
2024/04/15 04:38:54;;;;;;;12.75;7.13;;;;;;;11.94;100.00;100308.63;5484878;26;20002;-79
2024/04/15 04:41:21;;;;;;;13.25;6.90;;;;;;;12.12;100.00;100331.06;5479944;26;20010;-78
2024/04/15 04:43:47;;;;;;;19.10;7.40;;;;;;;12.01;100.00;100338.78;5484339;26;20003;-79
2024/04/15 04:46:12;;;;;;;11.50;6.97;;;;;;;11.85;100.00;100342.00;5485753;26;20004;-79
2024/04/15 04:48:39;;;;;;;11.70;6.72;;;;;;;11.45;100.00;100307.63;5477475;26;20070;-79
2024/04/15 04:51:09;;;;;;;12.18;7.50;;;;;;;12.26;100.00;100343.25;5484092;26;20009;-79
2024/04/15 04:53:34;;;;;;;23.58;8.07;;;;;;;12.17;100.00;100341.91;5486204;26;19997;-79
2024/04/15 04:56:14;;;;;;;11.07;7.80;;;;;;;11.95;100.00;100322.81;5486074;26;20450;-79
2024/04/15 04:58:41;;;;;;;10.75;7.70;;;;;;;12.36;100.00;100346.22;5475839;26;20005;-79
2024/04/15 05:01:10;;;;;;;15.77;7.20;;;;;;;12.23;100.00;100330.31;5515516;25;20017;-79
2024/04/15 05:03:40;;;;;;;11.48;7.78;;;;;;;13.02;100.00;100322.31;5471434;26;20002;-79
2024/04/15 05:06:06;;;;;;;11.35;8.57;;;;;;;13.26;100.00;100344.63;5474830;26;20026;-79
2024/04/15 05:08:32;;;;;;;11.80;8.25;;;;;;;13.26;100.00;100337.38;5467611;26;19995;-79
2024/04/15 05:10:57;;;;;;;10.90;7.20;;;;;;;13.24;100.00;100331.44;5461591;26;20009;-79
2024/04/15 05:13:22;;;;;;;11.15;7.50;;;;;;;13.87;97.67;100334.53;5484535;26;20001;-79
2024/04/15 05:15:48;;;;;;;10.25;7.47;;;;;;;13.58;97.93;100312.16;5485926;26;20001;-79
2024/04/15 05:18:13;;;;;;;11.52;7.40;;;;;;;13.68;97.63;100331.16;5477945;26;20001;-79
2024/04/15 05:20:39;;;;;;;11.80;8.43;;;;;;;14.38;93.68;100340.19;5474907;26;20035;-81
2024/04/15 05:23:04;;;;;;;11.98;7.63;;;;;;;14.06;94.61;100332.56;5471952;26;20348;-80
2024/04/15 05:25:29;;;;;;;13.55;7.88;;;;;;;14.19;92.20;100324.25;5470258;26;20035;-80
2024/04/15 05:27:55;;;;;;;11.88;8.20;;;;;;;14.04;91.60;100330.09;5479420;26;19994;-80
2024/04/15 05:30:20;;;;;;;13.02;7.95;;;;;;;14.35;88.58;100316.53;5479049;26;20370;-80
2024/04/15 05:32:46;;;;;;;17.15;7.80;;;;;;;14.69;86.94;100352.41;5480497;26;19998;-79
2024/04/15 05:35:11;;;;;;;15.18;8.10;;;;;;;15.07;82.76;100353.59;5478831;26;20002;-80
2024/04/15 05:37:36;;;;;;;11.98;8.00;;;;;;;15.25;81.92;100349.91;5480642;26;19990;-80
2024/04/15 05:40:02;;;;;;;13.57;7.80;;;;;;;15.70;79.78;100350.88;5448978;26;19999;-79
2024/04/15 05:42:27;;;;;;;15.82;8.70;;;;;;;16.11;77.44;100346.13;5479111;26;19998;-79
2024/04/15 05:44:53;;;;;;;11.10;7.90;;;;;;;16.21;76.29;100340.88;5478809;26;19995;-78
2024/04/15 05:47:18;;;;;;;10.55;7.18;;;;;;;16.41;77.68;100351.91;5479944;26;19994;-79
2024/04/15 05:49:44;;;;;;;11.20;8.05;;;;;;;16.50;78.40;100354.16;5450896;26;20030;-79
2024/04/15 05:52:09;;;;;;;14.02;8.40;;;;;;;16.37;78.05;100341.88;5448907;26;19995;-80
2024/04/15 05:54:34;;;;;;;11.57;7.60;;;;;;;16.24;77.08;100345.75;5465025;26;20009;-79
2024/04/15 05:57:03;;;;;;;11.93;7.53;;;;;;;16.48;75.56;100330.97;5467247;26;20548;-80
2024/04/15 05:59:29;;;;;;;10.20;6.82;;;;;;;16.48;75.51;100330.16;5469810;26;20017;-79
2024/04/15 06:01:55;;;;;;;11.93;7.82;;;;;;;16.83;75.50;100348.63;5468093;26;20004;-79
2024/04/15 06:04:20;;;;;;;12.35;7.32;;;;;;;16.92;73.50;100332.00;5464607;26;19999;-79
2024/04/15 06:06:46;;;;;;;12.48;7.10;;;;;;;16.85;72.43;100341.09;5466181;26;19998;-79
2024/04/15 06:09:12;;;;;;;8.65;7.25;;;;;;;16.93;71.41;100333.63;5467579;26;20002;-79
2024/04/15 06:11:37;;;;;;;12.95;7.50;;;;;;;17.27;68.65;100342.31;5468135;26;20002;-79
2024/04/15 06:14:03;;;;;;;9.23;7.03;;;;;;;17.41;67.61;100329.22;5466012;26;19998;-80
2024/04/15 06:16:28;;;;;;;12.60;7.07;;;;;;;17.97;65.49;100356.59;5467835;26;19994;-80
2024/04/15 06:18:53;;;;;;;11.65;7.05;;;;;;;18.18;65.02;100362.13;5466997;26;20067;-80
2024/04/15 06:21:20;;;;;;;10.43;6.93;;;;;;;18.16;65.06;100339.97;5465025;26;20009;-79
2024/04/15 06:23:46;;;;;;;10.60;7.13;;;;;;;18.26;63.38;100337.31;5463024;26;20746;-80
2024/04/15 06:26:11;;;;;;;10.43;6.55;;;;;;;18.54;59.45;100346.06;5461067;26;20071;-80
2024/04/15 06:28:37;;;;;;;8.00;5.30;;;;;;;18.67;58.20;100346.41;5471949;26;20010;-79
2024/04/15 06:31:02;;;;;;;9.18;5.53;;;;;;;18.93;58.78;100361.88;5470961;26;19994;-80
2024/04/15 06:33:28;;;;;;;9.35;5.95;;;;;;;19.12;59.43;100349.47;5463178;26;19999;-79
2024/04/15 06:35:54;;;;;;;8.70;5.35;;;;;;;19.30;57.54;100360.84;5449445;26;19994;-79
2024/04/15 06:38:19;;;;;;;8.52;5.20;;;;;;;19.45;57.54;100360.84;5459088;26;19994;-79
2024/04/15 06:40:45;;;;;;;7.70;5.25;;;;;;;19.54;58.51;100356.53;5488092;26;19998;-78
2024/04/15 06:43:10;;;;;;;7.80;5.15;;;;;;;19.63;56.14;100340.53;5487329;26;20005;-78
2024/04/15 06:45:36;;;;;;;7.53;5.45;;;;;;;19.78;57.20;100345.19;5488155;26;20033;-80
2024/04/15 06:48:03;;;;;;;7.20;4.75;;;;;;;19.93;56.21;100353.25;5485783;26;20006;-77
2024/04/15 06:50:29;;;;;;;6.60;4.80;;;;;;;19.84;56.35;100336.78;5488102;26;20508;-81
2024/04/15 06:52:54;;;;;;;7.43;5.20;;;;;;;19.82;55.80;100335.44;5486173;26;20002;-78
2024/04/15 06:55:20;;;;;;;10.05;4.40;;;;;;;20.09;53.23;100356.75;5487717;26;19997;-79
2024/04/15 06:57:45;;;;;;;7.78;4.20;;;;;;;20.32;51.88;100335.53;5485012;26;20017;-79
2024/04/15 07:00:12;;;;;;;7.60;4.75;;;;;;;20.56;50.92;100338.41;5485251;26;19998;-78
2024/04/15 07:02:37;;;;;;;9.82;4.75;;;;;;;20.61;51.34;100336.50;5487343;26;19994;-79
2024/04/15 07:05:03;;;;;;;7.38;4.55;;;;;;;20.73;53.02;100322.63;5488001;26;19998;-80
2024/04/15 07:07:29;;;;;;;7.72;4.60;;;;;;;20.87;52.45;100317.38;5487626;26;20028;-79
2024/04/15 07:09:54;;;;;;;7.35;4.30;;;;;;;21.23;50.78;100323.38;5455914;26;19999;-78
2024/04/15 07:12:20;;;;;;;6.72;3.92;;;;;;;21.17;48.43;100308.22;5451140;26;19999;-79
2024/04/15 07:14:46;;;;;;;8.02;4.07;;;;;;;21.52;48.47;100328.03;5451202;26;19999;-79
2024/04/15 07:17:11;;;;;;;6.63;4.10;;;;;;;21.70;50.02;100321.09;5450994;26;20427;-81
2024/04/15 07:19:37;;;;;;;6.45;4.30;;;;;;;21.73;48.33;100317.78;5474976;26;20009;-79
2024/04/15 07:22:02;;;;;;;8.40;4.55;;;;;;;21.79;48.23;100299.53;5485512;26;20032;-79
2024/04/15 07:24:29;;;;;;;9.07;4.38;;;;;;;21.99;48.11;100318.31;5487444;26;20067;-79
2024/04/15 07:26:55;;;;;;;9.10;4.35;;;;;;;22.20;45.81;100315.38;5487212;26;20062;-79
2024/04/15 07:29:20;;;;;;;8.63;4.35;;;;;;;22.34;45.56;100321.75;5486529;26;20006;-79
2024/04/15 07:31:45;;;;;;;8.70;4.20;;;;;;;22.37;44.87;100299.44;5487397;26;19998;-79
2024/04/15 07:34:11;;;;;;;9.68;4.60;;;;;;;22.65;44.01;100310.44;5484647;26;20362;-79
2024/04/15 07:36:36;;;;;;;7.68;3.80;;;;;;;22.86;44.03;100302.78;5486638;26;20396;-79
2024/04/15 07:39:02;;;;;;;6.68;3.72;;;;;;;23.02;44.53;100311.56;5485018;26;20062;-79
2024/04/15 07:41:27;;;;;;;7.57;3.88;;;;;;;23.20;43.61;100318.09;5486125;26;20423;-78
2024/04/15 07:43:53;;;;;;;6.53;4.15;;;;;;;23.18;43.07;100310.22;5487419;26;19994;-79
2024/04/15 07:46:18;;;;;;;6.00;3.83;;;;;;;23.27;43.20;100311.16;5486863;26;20380;-79
2024/04/15 07:48:43;;;;;;;5.88;3.88;;;;;;;23.03;43.75;100299.59;5483578;26;19994;-79
2024/04/15 07:51:09;;;;;;;6.53;4.30;;;;;;;23.11;44.07;100306.25;5486832;26;19994;-79
2024/04/15 07:53:34;;;;;;;7.88;3.92;;;;;;;23.56;45.23;100290.22;5486693;26;20492;-79
2024/04/15 07:56:00;;;;;;;8.55;4.25;;;;;;;23.38;45.73;100295.47;5486908;26;20008;-79
2024/04/15 07:58:25;;;;;;;9.60;4.70;;;;;;;23.27;45.88;100297.56;5486136;26;19998;-79
2024/04/15 08:00:51;;;;;;;9.18;4.80;;;;;;;23.36;44.41;100294.16;5487186;26;19998;-79
2024/04/15 08:03:16;;;;;;;8.00;4.72;;;;;;;23.71;43.66;100300.06;5484855;26;19998;-79
2024/04/15 08:05:41;;;;;;;7.22;4.55;;;;;;;23.88;44.25;100281.22;5486880;26;20487;-79
2024/04/15 08:08:07;;;;;;;7.18;4.28;;;;;;;24.06;44.51;100277.56;5486543;26;20456;-79
2024/04/15 08:10:33;;;;;;;10.75;4.93;;;;;;;24.39;42.92;100285.59;5485666;26;20008;-79
2024/04/15 08:12:58;;;;;;;8.55;4.78;;;;;;;24.08;43.44;100284.66;5486593;26;20063;-79
2024/04/15 08:15:23;;;;;;;11.90;4.95;;;;;;;24.17;43.88;100291.00;5485208;26;20384;-79
2024/04/15 08:17:49;;;;;;;11.00;4.82;;;;;;;24.36;42.35;100272.59;5486653;26;20049;-79
2024/04/15 08:20:14;;;;;;;10.35;4.28;;;;;;;24.41;42.92;100272.47;5484215;26;20010;-79
2024/04/15 08:22:40;;;;;;;11.52;4.93;;;;;;;24.58;42.89;100265.59;5486919;26;19998;-79
2024/04/15 08:25:08;;;;;;;10.23;4.68;;;;;;;24.47;41.22;100259.53;5486984;26;20013;-79
2024/04/15 08:27:35;;;;;;;12.82;4.82;;;;;;;24.45;43.86;100257.13;5486759;26;20506;-79
2024/04/15 08:30:01;;;;;;;8.98;4.97;;;;;;;24.96;41.23;100265.25;5486281;26;20073;-79
2024/04/15 08:32:26;;;;;;;7.60;4.53;;;;;;;25.50;38.93;100260.63;5485204;26;20002;-79
2024/04/15 08:34:52;;;;;;;10.68;4.85;;;;;;;25.94;39.86;100261.59;5486540;26;20059;-79
2024/04/15 08:37:17;;;;;;;8.57;4.50;;;;;;;25.60;36.43;100245.88;5486352;26;19994;-79
2024/04/15 08:39:43;;;;;;;6.00;3.30;;;;;;;25.85;36.15;100263.50;5485659;26;19997;-80
2024/04/15 08:42:38;;;;;;;6.78;3.67;;;;;;;25.62;37.75;100254.56;5486126;26;20017;-79
2024/04/15 08:45:07;;;;;;;6.57;3.60;;;;;;;25.78;38.06;100247.53;5486576;26;19998;-79
2024/04/15 08:47:34;;;;;;;7.57;4.43;;;;;;;25.82;36.89;100242.25;5486353;26;19998;-79
2024/04/15 08:50:02;;;;;;;7.53;3.85;;;;;;;26.24;36.69;100239.97;5485284;26;20006;-80
2024/04/15 08:52:27;;;;;;;6.45;3.20;;;;;;;25.98;35.61;100231.72;5486301;26;19998;-79
2024/04/15 08:54:54;;;;;;;7.65;3.47;;;;;;;26.04;35.14;100227.72;5486464;26;19999;-79
2024/04/15 08:57:21;;;;;;;5.50;3.33;;;;;;;26.23;35.71;100236.41;5486165;26;20029;-79
2024/04/15 08:59:49;;;;;;;9.10;3.67;;;;;;;26.16;36.06;100224.38;5483727;26;20009;-79
2024/04/15 09:02:16;;;;;;;7.75;3.50;;;;;;;26.15;37.00;100226.28;5486021;26;19998;-80
2024/04/15 09:04:42;;;;;;;9.20;3.50;;;;;;;26.18;36.32;100201.06;5486464;26;20002;-79
2024/04/15 09:07:08;;;;;;;7.07;3.10;;;;;;;26.55;34.04;100225.34;5485790;26;20338;-79
2024/04/15 09:09:33;;;;;;;5.72;3.50;;;;;;;26.67;35.68;100200.91;5468789;26;20451;-80
2024/04/15 09:11:59;;;;;;;6.47;2.90;;;;;;;26.89;34.76;100220.97;5449728;26;20331;-80
2024/04/15 09:14:25;;;;;;;6.03;2.92;;;;;;;27.27;35.16;100215.59;5449635;26;20010;-79
2024/04/15 09:16:54;;;;;;;7.57;3.40;;;;;;;27.55;33.61;100218.72;5449597;26;20100;-80
2024/04/15 09:19:22;;;;;;;5.13;2.78;;;;;;;27.97;31.58;100218.84;5448900;26;20002;-80
2024/04/15 09:21:47;;;;;;;5.18;2.95;;;;;;;27.73;31.21;100207.69;5448914;26;19999;-79
2024/04/15 09:24:13;;;;;;;6.50;3.30;;;;;;;27.95;32.72;100198.38;5449472;26;19999;-80
2024/04/15 09:26:38;;;;;;;6.40;3.00;;;;;;;27.75;33.62;100183.50;5449428;26;20038;-79
2024/04/15 09:29:03;;;;;;;5.07;3.17;;;;;;;28.00;32.76;100204.47;5456521;26;20013;-79
2024/04/15 09:31:29;;;;;;;6.97;2.97;;;;;;;28.12;31.36;100181.00;5482924;26;20339;-80
2024/04/15 09:33:55;;;;;;;4.90;2.80;;;;;;;28.27;31.17;100182.34;5482687;26;20075;-79
2024/04/15 09:36:20;;;;;;;3.85;2.42;;;;;;;28.28;31.43;100162.81;5483021;26;20014;-79
2024/04/15 09:38:48;;;;;;;5.32;2.72;;;;;;;28.66;29.50;100172.81;5482329;26;19998;-79
2024/04/15 09:41:14;;;;;;;3.75;2.60;;;;;;;28.87;30.36;100160.97;5460291;26;20033;-79
2024/04/15 09:43:41;;;;;;;5.93;2.45;;;;;;;28.68;28.61;100167.78;5483171;26;20016;-79
2024/04/15 09:46:09;;;;;;;4.78;2.28;;;;;;;28.70;27.60;100168.25;5484744;26;20070;-79
2024/04/15 09:48:35;;;;;;;5.88;2.47;;;;;;;28.63;25.93;100173.50;5485377;26;19998;-79
2024/04/15 09:51:06;;;;;;;9.75;2.40;;;;;;;29.14;28.95;100146.63;5451459;26;20007;-79
2024/04/15 09:53:43;;;;;;;3.50;2.13;;;;;;;29.51;25.96;100168.59;5449087;26;20021;-79
2024/04/15 09:56:16;;;;;;;5.78;2.50;;;;;;;29.37;26.76;100162.66;5446963;26;20089;-80
2024/04/15 09:58:44;;;;;;;6.20;2.15;;;;;;;29.48;25.02;100158.28;5448986;26;20017;-85
2024/04/15 10:01:17;;;;;;;6.57;2.33;;;;;;;29.85;25.43;100144.53;5482472;26;20073;-79
2024/04/15 10:03:46;;;;;;;4.15;2.15;;;;;;;29.41;25.45;100130.59;5485867;26;20017;-80
2024/04/15 10:06:15;;;;;;;3.60;2.25;;;;;;;29.94;25.14;100138.91;5488645;26;20092;-79
2024/04/15 10:08:40;;;;;;;5.30;2.50;;;;;;;29.98;26.17;100137.88;5488952;26;20442;-80
2024/04/15 10:11:06;;;;;;;3.80;2.35;;;;;;;30.07;26.24;100134.16;5453819;26;20003;-79
2024/04/15 10:13:33;;;;;;;5.20;2.58;;;;;;;29.71;26.39;100106.44;5451953;26;20014;-81
2024/04/15 10:16:02;;;;;;;4.63;2.40;;;;;;;30.12;26.38;100114.66;5452249;26;20014;-79
2024/04/15 10:18:30;;;;;;;4.68;2.30;;;;;;;30.61;28.18;100111.72;5452173;26;20006;-79
2024/04/15 10:20:56;;;;;;;4.32;2.35;;;;;;;30.68;26.40;100109.13;5480237;26;20006;-77
2024/04/15 10:23:24;;;;;;;5.13;2.30;;;;;;;30.58;27.29;100093.94;5488208;26;20078;-79
2024/04/15 10:25:50;;;;;;;5.72;2.63;;;;;;;30.47;27.26;100075.56;5488466;26;20014;-78
2024/04/15 10:28:17;;;;;;;4.60;2.58;;;;;;;31.10;27.50;100078.34;5488751;26;20013;-78
2024/04/15 10:30:46;;;;;;;4.73;2.87;;;;;;;31.71;26.90;100093.53;5462973;26;19998;-79
2024/04/15 10:33:13;;;;;;;4.43;2.70;;;;;;;31.49;26.47;100086.75;5452107;26;20010;-79
2024/04/15 10:35:39;;;;;;;;;;;;;;;31.44;27.53;100084.25;5452731;26;20028;-79
2024/04/15 10:38:09;;;;;;;7.65;2.67;;;;;;;31.53;27.93;100070.28;5452129;26;19942;-79
2024/04/15 10:40:44;;;;;;;4.38;2.90;;;;;;;31.11;28.19;100057.91;5454753;26;20009;-80
2024/04/15 10:43:18;;;;;;;6.45;2.97;;;;;;;31.50;28.18;100054.47;5452020;26;20056;-81
2024/04/15 10:45:46;;;;;;;4.90;2.78;;;;;;;31.27;28.00;100048.81;5452207;26;20010;-80
2024/04/15 10:48:12;;;;;;;4.50;2.60;;;;;;;30.77;28.17;100040.13;5451479;26;20512;-80
2024/04/15 10:50:37;;;;;;;4.90;3.00;;;;;;;31.41;28.32;100038.91;5454712;26;20018;-79
2024/04/15 10:53:03;;;;;;;5.05;2.50;;;;;;;32.06;28.30;100026.50;5451764;26;20010;-81
2024/04/15 10:55:29;;;;;;;5.68;2.72;;;;;;;31.97;26.57;100028.63;5451893;26;19995;-80
2024/04/15 10:57:56;;;;;;;7.80;2.90;;;;;;;32.32;25.45;100016.69;5451911;26;20074;-79
2024/04/15 11:00:23;;;;;;;6.47;2.40;;;;;;;32.46;24.42;100018.91;5454336;26;19999;-79
2024/04/15 11:02:54;;;;;;;10.50;6.60;;;;;;;32.94;25.07;100016.56;5449927;26;19999;-80
2024/04/15 11:05:21;;;;;;;7.22;2.97;;;;;;;32.62;24.14;100025.13;5452006;26;20005;-78
2024/04/15 11:07:47;;;;;;;5.13;2.80;;;;;;;33.14;23.63;100011.72;5451990;26;20010;-80
2024/04/15 11:10:13;;;;;;;6.70;3.00;;;;;;;33.49;22.72;100016.13;5468458;26;20071;-78
2024/04/15 11:12:40;;;;;;;7.75;2.47;;;;;;;33.27;21.65;100009.53;5489118;26;20050;-79
2024/04/15 11:15:10;;;;;;;5.32;3.17;;;;;;;33.47;20.76;100008.22;5487032;26;20071;-79
2024/04/15 11:17:43;;;;;;;4.90;2.55;;;;;;;33.09;21.22;99987.97;5488599;26;20006;-79